Aviation Digital Data Service (ADDS)

Output produced by METARs form (2155 UTC 08 August 2020)
found at http://www.aviationweather.gov/metar/data/
 
Forecast for: RJNK (KOMATSU (CIV/JAS, JP)
Text: TAF RJNK 081705Z 0818/1000 24008KT 9999 FEW030 BKN080
Forecast period: 1800 UTC 08 August 2020 to 0000 UTC 10 August 2020
Forecast type: FROM: standard forecast or significant change
Winds: from the WSW (240 degrees) at 9 MPH (8 knots; 4.1 m/s)
Visibility: 6 or more miles (10+ km)
Ceiling: 8000 feet AGL
Clouds: few clouds at 3000 feet AGL
broken clouds at 8000 feet AGL
Weather: no significant weather forecast for this period